createdAt,value
2019-01-19T00:00:10.715Z,93.03
2019-01-19T00:02:45.297Z,98.97
2019-01-19T00:06:04.190Z,105.27
2019-01-19T00:09:00.175Z,78.13
2019-01-19T00:12:04.224Z,77.73
2019-01-19T00:14:44.656Z,76.60
2019-01-19T00:17:32.753Z,67.50
2019-01-19T00:20:37.962Z,74.17
2019-01-19T00:23:48.780Z,66.73
2019-01-19T00:26:52.409Z,67.67
2019-01-19T00:29:45.881Z,68.43
2019-01-19T00:32:53.444Z,69.67
2019-01-19T00:35:47.254Z,69.12
2019-01-19T00:38:29.174Z,67.07
2019-01-19T00:41:38.756Z,63.67
2019-01-19T00:45:09.041Z,64.60
2019-01-19T00:48:15.834Z,70.13
2019-01-19T00:51:18.241Z,67.23
2019-01-19T00:53:54.438Z,66.50
2019-01-19T00:56:58.062Z,69.17
2019-01-19T00:59:29.964Z,71.30
2019-01-19T01:02:47.629Z,69.20
2019-01-19T01:05:55.399Z,71.63
2019-01-19T01:08:49.865Z,67.07
2019-01-19T01:11:47.001Z,67.77
2019-01-19T01:14:52.498Z,70.90
2019-01-19T01:17:49.666Z,67.23
2019-01-19T01:20:48.557Z,73.60
2019-01-19T01:24:12.921Z,80.47
2019-01-19T01:27:23.521Z,85.10
2019-01-19T01:30:53.422Z,86.00
2019-01-19T01:34:17.848Z,83.60
2019-01-19T01:37:26.536Z,84.37
2019-01-19T01:40:41.701Z,91.53
2019-01-19T01:43:41.074Z,81.07
2019-01-19T01:46:37.312Z,89.23
2019-01-19T01:49:22.447Z,85.57
2019-01-19T01:52:17.806Z,76.27
2019-01-19T01:55:17.417Z,68.17
2019-01-19T01:58:12.863Z,69.60
2019-01-19T02:01:21.676Z,80.37
2019-01-19T02:04:10.969Z,91.43
2019-01-19T02:07:05.203Z,84.10
2019-01-19T02:10:02.531Z,82.87
2019-01-19T02:12:49.028Z,80.13
2019-01-19T02:15:51.146Z,78.93
2019-01-19T02:18:59.210Z,80.87
2019-01-19T02:22:22.635Z,93.73
2019-01-19T02:25:37.091Z,92.27
2019-01-19T02:28:13.805Z,90.03
2019-01-19T02:31:20.449Z,83.93
2019-01-19T02:34:35.622Z,96.60
2019-01-19T02:37:30.712Z,83.90
2019-01-19T02:40:15.841Z,93.40
2019-01-19T02:43:07.742Z,90.67
2019-01-19T02:45:55.600Z,92.73
2019-01-19T02:49:00.976Z,81.50
2019-01-19T02:52:40.768Z,87.13
2019-01-19T02:55:38.101Z,77.70
2019-01-19T02:58:35.897Z,84.67
2019-01-19T03:01:40.741Z,86.27
2019-01-19T03:04:49.912Z,81.80
2019-01-19T03:08:14.531Z,75.17
2019-01-19T03:11:31.787Z,78.67
2019-01-19T03:14:30.458Z,80.07
2019-01-19T03:17:47.504Z,80.00
2019-01-19T03:20:59.555Z,81.77
2019-01-19T03:24:16.509Z,73.23
2019-01-19T03:27:02.185Z,73.73
2019-01-19T03:29:41.871Z,66.30
2019-01-19T03:32:29.976Z,70.00
2019-01-19T03:35:20.776Z,82.87
2019-01-19T03:38:27.111Z,69.20
2019-01-19T03:41:13.400Z,71.60
2019-01-19T03:44:28.550Z,55.50
2019-01-19T03:47:25.070Z,69.30
2019-01-19T03:50:46.114Z,57.90
2019-01-19T03:53:28.023Z,66.47
2019-01-19T03:56:21.335Z,62.27
2019-01-19T03:59:21.861Z,72.43
2019-01-19T04:02:16.197Z,69.57
2019-01-19T04:05:09.308Z,65.90
2019-01-19T04:08:09.570Z,71.13
2019-01-19T04:10:45.113Z,68.63
2019-01-19T04:13:53.552Z,68.53
2019-01-19T04:17:18.183Z,71.67
2019-01-19T04:20:15.613Z,72.60
2019-01-19T04:22:49.190Z,76.53
2019-01-19T04:25:50.185Z,76.80
2019-01-19T04:28:19.665Z,76.97
2019-01-19T04:30:49.753Z,77.27
2019-01-19T04:33:17.421Z,77.90
2019-01-19T04:35:45.274Z,82.90
2019-01-19T04:38:12.998Z,81.20
2019-01-19T04:40:40.561Z,84.30
2019-01-19T04:43:09.098Z,87.37
2019-01-19T04:45:36.620Z,88.30
2019-01-19T04:48:04.529Z,84.97
2019-01-19T04:50:32.067Z,75.40
2019-01-19T04:52:59.562Z,81.17
2019-01-19T04:55:27.171Z,93.23
2019-01-19T04:57:54.828Z,97.23
2019-01-19T05:00:23.204Z,74.13
2019-01-19T05:02:50.790Z,66.53
2019-01-19T05:05:18.782Z,68.37
2019-01-19T05:07:46.144Z,67.97
2019-01-19T05:10:14.153Z,64.00
2019-01-19T05:12:41.803Z,65.63
2019-01-19T05:15:12.452Z,62.13
2019-01-19T05:17:40.157Z,53.07
2019-01-19T05:20:09.010Z,54.30
2019-01-19T05:22:36.575Z,52.53
2019-01-19T05:25:10.128Z,48.13
2019-01-19T05:27:37.838Z,46.57
2019-01-19T05:30:11.665Z,42.37
2019-01-19T05:32:39.197Z,42.93
2019-01-19T05:35:07.375Z,40.23
2019-01-19T05:37:35.163Z,43.87
2019-01-19T05:40:03.783Z,48.70
2019-01-19T05:42:31.449Z,48.77
2019-01-19T05:44:58.954Z,50.37
2019-01-19T05:47:26.379Z,51.67
2019-01-19T05:49:53.962Z,54.53
2019-01-19T05:52:21.491Z,47.23
2019-01-19T05:54:50.073Z,56.73
2019-01-19T05:57:17.589Z,51.07
2019-01-19T05:59:45.233Z,52.60
2019-01-19T06:02:12.952Z,50.17
2019-01-19T06:04:40.500Z,47.90
2019-01-19T06:07:08.040Z,47.03
2019-01-19T06:09:35.577Z,54.77
2019-01-19T06:12:03.575Z,52.00
2019-01-19T06:14:31.254Z,48.20
2019-01-19T06:16:58.839Z,50.60
2019-01-19T06:19:26.879Z,48.37
2019-01-19T06:21:59.406Z,48.70
2019-01-19T06:24:27.241Z,51.27
2019-01-19T06:26:54.992Z,49.43
2019-01-19T06:29:22.716Z,49.87
2019-01-19T06:31:50.240Z,49.87
2019-01-19T06:34:17.707Z,46.53
2019-01-19T06:36:45.153Z,46.87
2019-01-19T06:39:12.699Z,41.03
2019-01-19T06:41:40.292Z,42.57
2019-01-19T06:44:07.796Z,47.67
2019-01-19T06:46:35.475Z,45.73
2019-01-19T06:49:02.998Z,47.97
2019-01-19T06:51:30.659Z,48.13
2019-01-19T06:54:01.767Z,52.13
2019-01-19T06:56:28.448Z,62.47
2019-01-19T06:58:56.214Z,54.77
2019-01-19T07:01:23.748Z,82.20
2019-01-19T07:03:51.583Z,63.33
2019-01-19T07:06:19.379Z,54.80
2019-01-19T07:08:47.698Z,54.97
2019-01-19T07:11:15.192Z,52.13
2019-01-19T07:13:42.806Z,65.23
2019-01-19T07:16:10.310Z,60.47
2019-01-19T07:18:37.796Z,59.13
2019-01-19T07:21:05.267Z,66.07
2019-01-19T07:23:32.928Z,71.97
2019-01-19T07:26:00.519Z,64.67
2019-01-19T07:28:28.093Z,53.47
2019-01-19T07:30:55.481Z,59.97
2019-01-19T07:33:23.062Z,62.27
2019-01-19T07:35:50.982Z,68.93
2019-01-19T07:38:18.622Z,72.50
2019-01-19T07:40:46.137Z,63.97
2019-01-19T07:43:15.255Z,68.33
2019-01-19T07:45:42.770Z,60.10
2019-01-19T07:48:10.985Z,74.43
2019-01-19T07:50:38.672Z,74.17
2019-01-19T07:53:06.381Z,75.20
2019-01-19T07:55:34.167Z,67.60
2019-01-19T07:58:01.702Z,67.47
2019-01-19T08:00:30.721Z,84.53
2019-01-19T08:02:58.384Z,53.43
2019-01-19T08:05:26.255Z,62.63
2019-01-19T08:07:53.808Z,64.53
2019-01-19T08:10:21.537Z,72.57
2019-01-19T08:12:49.248Z,73.77
2019-01-19T08:15:19.161Z,68.97
2019-01-19T08:17:46.776Z,70.20
2019-01-19T08:20:14.850Z,65.63
2019-01-19T08:22:42.625Z,65.00
2019-01-19T08:25:10.470Z,64.63
2019-01-19T08:27:38.177Z,63.17
2019-01-19T08:30:12.262Z,58.37
2019-01-19T08:32:39.897Z,64.57
2019-01-19T08:35:07.903Z,65.57
2019-01-19T08:37:35.577Z,62.47
2019-01-19T08:40:03.538Z,64.47
2019-01-19T08:42:31.562Z,62.77
2019-01-19T08:45:00.227Z,60.50
2019-01-19T08:47:27.749Z,57.40
2019-01-19T08:49:55.361Z,63.87
2019-01-19T08:52:23.100Z,60.17
2019-01-19T08:54:50.606Z,55.57
2019-01-19T08:57:18.175Z,52.30
2019-01-19T08:59:45.891Z,59.63
2019-01-19T09:02:13.434Z,58.53
2019-01-19T09:04:41.097Z,58.50
2019-01-19T09:07:08.686Z,59.97
2019-01-19T09:09:36.338Z,61.83
2019-01-19T09:12:03.980Z,62.70
2019-01-19T09:14:31.467Z,60.13
2019-01-19T09:16:58.932Z,60.43
2019-01-19T09:19:26.908Z,62.27
2019-01-19T09:21:54.501Z,58.23
2019-01-19T09:24:25.540Z,57.13
2019-01-19T09:26:53.453Z,60.87
2019-01-19T09:29:20.988Z,60.37
2019-01-19T09:31:48.516Z,59.40
2019-01-19T09:34:16.450Z,70.53
2019-01-19T09:36:44.219Z,54.33
2019-01-19T09:39:12.289Z,80.00
2019-01-19T09:41:39.870Z,82.70
2019-01-19T09:44:07.648Z,76.90
2019-01-19T09:46:35.056Z,75.80
2019-01-19T09:49:02.882Z,73.63
2019-01-19T09:51:30.353Z,73.43
2019-01-19T09:53:57.943Z,74.37
2019-01-19T09:56:25.566Z,58.07
2019-01-19T09:58:53.118Z,74.17
2019-01-19T10:01:20.673Z,73.17
2019-01-19T10:03:48.260Z,78.03
2019-01-19T10:06:15.984Z,75.80
2019-01-19T10:08:43.756Z,76.73
2019-01-19T10:11:12.059Z,75.10
2019-01-19T10:13:39.577Z,79.53
2019-01-19T10:16:07.223Z,75.87
2019-01-19T10:18:34.865Z,78.23
2019-01-19T10:21:02.399Z,80.13
2019-01-19T10:23:37.544Z,78.77
2019-01-19T10:26:05.102Z,77.63
2019-01-19T10:28:32.513Z,81.57
2019-01-19T10:31:00.120Z,82.07
2019-01-19T10:33:27.833Z,83.73
2019-01-19T10:35:55.394Z,77.53
2019-01-19T10:38:22.992Z,87.07
2019-01-19T10:40:50.685Z,84.77
2019-01-19T10:43:18.322Z,85.47
2019-01-19T10:45:45.798Z,89.43
2019-01-19T10:48:13.374Z,81.87
2019-01-19T10:50:41.000Z,81.93
2019-01-19T10:53:08.446Z,79.97
2019-01-19T10:55:36.098Z,85.03
2019-01-19T10:58:04.163Z,90.83
2019-01-19T11:00:31.751Z,80.30
2019-01-19T11:02:59.595Z,72.73
2019-01-19T11:05:28.081Z,67.20
2019-01-19T11:08:03.207Z,60.37
2019-01-19T11:10:28.113Z,68.40
2019-01-19T11:12:55.982Z,69.23
2019-01-19T11:15:23.629Z,70.23
2019-01-19T11:17:51.444Z,60.03
2019-01-19T11:20:21.087Z,66.53
2019-01-19T11:22:48.662Z,65.83
2019-01-19T11:25:16.230Z,61.70
2019-01-19T11:27:43.686Z,66.10
2019-01-19T11:30:17.787Z,64.20
2019-01-19T11:32:45.361Z,69.67
2019-01-19T11:35:13.450Z,68.63
2019-01-19T11:37:41.120Z,69.67
2019-01-19T11:40:14.601Z,64.70
2019-01-19T11:42:42.306Z,64.03
2019-01-19T11:45:13.146Z,62.87
2019-01-19T11:47:40.650Z,64.60
2019-01-19T11:50:08.579Z,59.53
2019-01-19T11:52:36.224Z,64.67
2019-01-19T11:55:05.212Z,54.57
2019-01-19T11:57:32.783Z,59.97
2019-01-19T12:00:00.350Z,65.43
2019-01-19T12:02:28.320Z,56.87
2019-01-19T12:04:55.920Z,59.63
2019-01-19T12:07:23.723Z,63.77
2019-01-19T12:09:51.549Z,64.77
2019-01-19T12:12:19.097Z,62.67
2019-01-19T12:14:47.002Z,59.23
2019-01-19T12:17:14.672Z,60.83
2019-01-19T12:19:42.410Z,56.73
2019-01-19T12:22:10.119Z,55.33
2019-01-19T12:24:37.732Z,57.30
2019-01-19T12:27:05.303Z,55.40
2019-01-19T12:29:32.860Z,56.10
2019-01-19T12:32:00.288Z,58.40
2019-01-19T12:34:27.951Z,58.10
2019-01-19T12:36:55.956Z,52.83
2019-01-19T12:39:23.545Z,53.00
2019-01-19T12:41:51.029Z,56.40
2019-01-19T12:44:18.703Z,63.83
2019-01-19T12:46:46.538Z,56.30
2019-01-19T12:49:14.635Z,54.67
2019-01-19T12:51:42.206Z,57.77
2019-01-19T12:54:09.672Z,54.53
2019-01-19T12:56:37.209Z,49.60
2019-01-19T12:59:04.950Z,51.13
2019-01-19T13:01:32.879Z,46.57
2019-01-19T13:04:00.432Z,41.63
2019-01-19T13:06:45.147Z,53.77
2019-01-19T13:09:27.821Z,46.33
2019-01-19T13:12:31.919Z,46.10
2019-01-19T13:15:56.197Z,50.63
2019-01-19T13:18:33.020Z,52.90
2019-01-19T13:21:45.129Z,51.57
2019-01-19T13:24:42.778Z,49.77
2019-01-19T13:27:20.718Z,51.27
2019-01-19T13:30:16.183Z,54.00
2019-01-19T13:33:12.361Z,51.17
2019-01-19T13:36:36.884Z,46.93
2019-01-19T13:39:49.052Z,40.80
2019-01-19T13:42:52.777Z,43.37
2019-01-19T13:45:32.626Z,44.67
2019-01-19T13:48:47.549Z,47.27
2019-01-19T13:51:40.837Z,46.37
2019-01-19T13:54:35.113Z,39.60
2019-01-19T13:57:35.605Z,46.73
2019-01-19T14:01:08.895Z,42.37
2019-01-19T14:03:44.803Z,36.33
2019-01-19T14:06:39.875Z,40.50
2019-01-19T14:09:53.886Z,43.57
2019-01-19T14:12:51.086Z,35.83
2019-01-19T14:15:41.104Z,39.43
2019-01-19T14:19:02.607Z,37.93
2019-01-19T14:21:55.358Z,34.60
2019-01-19T14:24:59.765Z,42.10
2019-01-19T14:28:14.476Z,43.60
2019-01-19T14:31:17.859Z,43.77
2019-01-19T14:34:33.883Z,46.27
2019-01-19T14:37:40.805Z,54.63
2019-01-19T14:40:37.813Z,55.53
2019-01-19T14:43:49.872Z,53.67
2019-01-19T14:46:59.149Z,57.70
2019-01-19T14:50:14.417Z,58.63
2019-01-19T14:53:10.137Z,55.93
2019-01-19T14:56:31.569Z,62.97
2019-01-19T14:59:30.268Z,65.50
2019-01-19T15:02:39.249Z,63.07
2019-01-19T15:05:34.241Z,55.90
2019-01-19T15:08:55.483Z,55.57
2019-01-19T15:11:46.601Z,59.07
2019-01-19T15:14:59.286Z,55.13
2019-01-19T15:18:04.456Z,53.17
2019-01-19T15:21:02.154Z,53.57
2019-01-19T15:23:53.451Z,56.67
2019-01-19T15:27:08.494Z,50.93
2019-01-19T15:29:53.862Z,51.30
2019-01-19T15:33:10.956Z,53.70
2019-01-19T15:36:01.535Z,55.53
2019-01-19T15:39:12.485Z,54.23
2019-01-19T15:42:20.195Z,56.73
2019-01-19T15:45:18.169Z,53.83
2019-01-19T15:48:33.444Z,52.87
2019-01-19T15:51:28.077Z,53.77
2019-01-19T15:54:43.457Z,50.20
2019-01-19T15:57:27.368Z,52.80
2019-01-19T16:00:44.427Z,46.97
2019-01-19T16:03:53.416Z,54.13
2019-01-19T16:06:42.169Z,53.83
2019-01-19T16:09:29.653Z,55.77
2019-01-19T16:12:38.072Z,53.97
2019-01-19T16:15:40.249Z,59.67
2019-01-19T16:18:36.998Z,56.90
2019-01-19T16:21:24.608Z,56.33
2019-01-19T16:24:42.722Z,54.80
2019-01-19T16:27:41.277Z,46.23
2019-01-19T16:30:50.162Z,35.60
2019-01-19T16:33:45.853Z,56.37
2019-01-19T16:36:36.740Z,54.80
2019-01-19T16:39:46.222Z,55.40
2019-01-19T16:42:42.493Z,55.17
2019-01-19T16:46:06.697Z,52.83
2019-01-19T16:49:14.645Z,40.57
2019-01-19T16:52:20.324Z,35.97
2019-01-19T16:55:32.492Z,43.30
2019-01-19T16:58:29.968Z,34.13
2019-01-19T17:01:51.369Z,29.57
2019-01-19T17:04:53.116Z,36.60
2019-01-19T17:07:51.247Z,34.23
2019-01-19T17:10:39.195Z,32.00
2019-01-19T17:13:42.595Z,28.70
2019-01-19T17:16:35.922Z,22.33
2019-01-19T17:19:49.583Z,19.67
2019-01-19T17:23:04.962Z,19.23
2019-01-19T17:26:08.870Z,15.83
2019-01-19T17:28:52.687Z,14.27
2019-01-19T17:32:07.513Z,16.27
2019-01-19T17:34:58.740Z,15.40
2019-01-19T17:37:56.864Z,15.00
2019-01-19T17:41:16.082Z,13.53
2019-01-19T17:44:37.789Z,14.77
2019-01-19T17:47:30.823Z,14.03
2019-01-19T17:50:37.614Z,15.20
2019-01-19T17:53:28.510Z,15.13
2019-01-19T17:56:29.288Z,16.47
2019-01-19T17:59:34.413Z,17.37
2019-01-19T18:02:35.206Z,15.93
2019-01-19T18:05:35.531Z,15.33
2019-01-19T18:08:31.725Z,15.20
2019-01-19T18:11:37.222Z,15.60
2019-01-19T18:14:22.878Z,16.87
2019-01-19T18:17:50.551Z,17.50
2019-01-19T18:20:43.026Z,18.17
2019-01-19T18:23:56.828Z,19.03
2019-01-19T18:26:59.699Z,19.93
2019-01-19T18:30:06.161Z,20.37
2019-01-19T18:33:36.853Z,23.27
2019-01-19T18:36:29.515Z,23.77
2019-01-19T18:39:57.042Z,24.10
2019-01-19T18:43:08.738Z,26.67
2019-01-19T18:46:10.198Z,26.17
2019-01-19T18:49:04.100Z,25.07
2019-01-19T18:52:31.844Z,25.63
2019-01-19T18:55:39.770Z,28.67
2019-01-19T18:59:07.059Z,26.30
2019-01-19T19:02:06.907Z,25.97
2019-01-19T19:05:10.515Z,24.53
2019-01-19T19:08:06.803Z,25.17
2019-01-19T19:11:17.651Z,26.67
2019-01-19T19:14:18.750Z,25.77
2019-01-19T19:17:19.243Z,25.13
2019-01-19T19:20:15.680Z,26.97
2019-01-19T19:23:22.095Z,23.47
2019-01-19T19:26:24.821Z,24.97
2019-01-19T19:29:30.061Z,26.27
2019-01-19T19:32:37.990Z,26.47
2019-01-19T19:36:08.420Z,25.93
2019-01-19T19:39:16.783Z,28.13
2019-01-19T19:42:19.527Z,30.07
2019-01-19T19:45:09.732Z,28.23
2019-01-19T19:48:23.898Z,29.87
2019-01-19T19:51:30.345Z,28.50
2019-01-19T19:53:58.214Z,30.33
2019-01-19T19:56:24.482Z,30.87
2019-01-19T19:58:52.006Z,29.50
2019-01-19T20:01:19.550Z,30.23
2019-01-19T20:03:47.288Z,29.23
2019-01-19T20:06:14.929Z,31.63
2019-01-19T20:08:42.401Z,28.03
2019-01-19T20:11:09.952Z,28.10
2019-01-19T20:13:37.716Z,30.80
2019-01-19T20:16:05.340Z,35.27
2019-01-19T20:18:33.072Z,34.37
2019-01-19T20:21:00.577Z,32.57
2019-01-19T20:23:28.847Z,32.63
2019-01-19T20:25:56.737Z,34.47
2019-01-19T20:28:24.194Z,35.60
2019-01-19T20:30:51.845Z,36.27
2019-01-19T20:33:19.273Z,38.20
2019-01-19T20:35:46.914Z,36.03
2019-01-19T20:38:14.504Z,38.00
2019-01-19T20:40:42.227Z,34.00
2019-01-19T20:43:09.732Z,35.47
2019-01-19T20:45:37.240Z,32.90
2019-01-19T20:48:05.113Z,35.43
2019-01-19T20:50:32.693Z,32.00
2019-01-19T20:53:00.288Z,35.07
2019-01-19T20:55:27.910Z,34.23
2019-01-19T20:57:55.412Z,35.27
2019-01-19T21:00:23.135Z,33.60
2019-01-19T21:02:50.656Z,34.33
2019-01-19T21:05:18.151Z,35.17
2019-01-19T21:07:45.619Z,34.70
2019-01-19T21:10:13.299Z,33.93
2019-01-19T21:12:40.902Z,34.40
2019-01-19T21:15:10.122Z,33.33
2019-01-19T21:17:37.581Z,33.80
2019-01-19T21:20:07.290Z,33.43
2019-01-19T21:22:34.858Z,33.27
2019-01-19T21:25:03.159Z,32.87
2019-01-19T21:27:30.656Z,33.30
2019-01-19T21:29:58.238Z,31.20
2019-01-19T21:32:25.725Z,34.60
2019-01-19T21:34:53.241Z,32.67
2019-01-19T21:37:21.028Z,36.07
2019-01-19T21:39:48.755Z,37.97
2019-01-19T21:42:16.353Z,36.73
2019-01-19T21:44:43.899Z,39.40
2019-01-19T21:47:12.072Z,37.73
2019-01-19T21:49:39.937Z,39.93
2019-01-19T21:52:07.606Z,39.30
2019-01-19T21:54:35.461Z,38.50
2019-01-19T21:57:03.247Z,41.17
2019-01-19T21:59:31.087Z,40.20
2019-01-19T22:01:59.253Z,42.53
2019-01-19T22:04:26.936Z,42.57
2019-01-19T22:06:54.826Z,43.40
2019-01-19T22:09:22.344Z,44.43
2019-01-19T22:11:49.892Z,42.77
2019-01-19T22:14:17.438Z,33.50
2019-01-19T22:16:44.967Z,48.20
2019-01-19T22:19:12.476Z,41.27
2019-01-19T22:21:40.092Z,40.03
2019-01-19T22:24:07.650Z,38.00
2019-01-19T22:26:35.821Z,36.07
2019-01-19T22:29:03.790Z,37.53
2019-01-19T22:31:31.443Z,40.03
2019-01-19T22:33:59.166Z,38.13
2019-01-19T22:36:26.729Z,35.37
2019-01-19T22:38:54.339Z,41.10
2019-01-19T22:41:21.955Z,36.43
2019-01-19T22:43:49.572Z,39.87
2019-01-19T22:46:17.349Z,38.90
2019-01-19T22:48:44.984Z,40.10
2019-01-19T22:51:12.742Z,37.40
2019-01-19T22:53:40.395Z,42.53
2019-01-19T22:56:07.947Z,39.37
2019-01-19T22:58:35.671Z,41.57
2019-01-19T23:01:43.597Z,38.27
2019-01-19T23:04:12.144Z,38.87
2019-01-19T23:06:39.855Z,39.63
2019-01-19T23:09:14.277Z,37.83
2019-01-19T23:11:42.525Z,36.80
2019-01-19T23:14:11.415Z,41.17
2019-01-19T23:16:39.744Z,40.27
2019-01-19T23:19:07.488Z,37.77
2019-01-19T23:21:35.056Z,39.97
2019-01-19T23:24:02.670Z,35.63
2019-01-19T23:26:30.580Z,35.80
2019-01-19T23:28:58.054Z,35.73
2019-01-19T23:31:26.095Z,43.63
2019-01-19T23:33:53.635Z,43.00
2019-01-19T23:36:21.224Z,36.73
2019-01-19T23:38:48.767Z,31.27
2019-01-19T23:41:16.213Z,36.40
2019-01-19T23:43:43.732Z,32.50
2019-01-19T23:46:11.301Z,36.63
2019-01-19T23:48:38.791Z,30.10
2019-01-19T23:51:06.427Z,30.90
2019-01-19T23:53:34.223Z,32.83
2019-01-19T23:56:01.753Z,34.87
2019-01-19T23:58:29.191Z,31.33
